sensor_id;sensor_type;location;lat;lon;timestamp;P1;durP1;ratioP1;P2;durP2;ratioP2
51495;SDS011;37572;52.094;4.870;2023-03-20T00:00:30;6.20;;;3.40;;
51495;SDS011;37572;52.094;4.870;2023-03-20T00:02:56;8.00;;;4.65;;
51495;SDS011;37572;52.094;4.870;2023-03-20T00:05:22;8.07;;;4.13;;
51495;SDS011;37572;52.094;4.870;2023-03-20T00:07:48;7.38;;;4.30;;
51495;SDS011;37572;52.094;4.870;2023-03-20T00:10:15;6.43;;;4.00;;
51495;SDS011;37572;52.094;4.870;2023-03-20T00:12:41;7.30;;;4.28;;
51495;SDS011;37572;52.094;4.870;2023-03-20T00:15:13;10.05;;;4.32;;
51495;SDS011;37572;52.094;4.870;2023-03-20T00:17:41;13.15;;;6.10;;
51495;SDS011;37572;52.094;4.870;2023-03-20T00:20:12;11.67;;;6.67;;
51495;SDS011;37572;52.094;4.870;2023-03-20T00:22:37;16.80;;;6.20;;
51495;SDS011;37572;52.094;4.870;2023-03-20T00:25:03;14.27;;;6.87;;
51495;SDS011;37572;52.094;4.870;2023-03-20T00:27:28;15.53;;;6.53;;
51495;SDS011;37572;52.094;4.870;2023-03-20T00:29:53;13.67;;;6.73;;
51495;SDS011;37572;52.094;4.870;2023-03-20T00:32:18;11.33;;;6.27;;
51495;SDS011;37572;52.094;4.870;2023-03-20T00:34:43;14.20;;;5.90;;
51495;SDS011;37572;52.094;4.870;2023-03-20T00:37:09;11.50;;;5.13;;
51495;SDS011;37572;52.094;4.870;2023-03-20T00:39:35;14.38;;;5.13;;
51495;SDS011;37572;52.094;4.870;2023-03-20T00:42:01;11.37;;;4.90;;
51495;SDS011;37572;52.094;4.870;2023-03-20T00:44:29;11.93;;;4.78;;
51495;SDS011;37572;52.094;4.870;2023-03-20T00:46:56;13.55;;;5.75;;
51495;SDS011;37572;52.094;4.870;2023-03-20T00:49:23;13.13;;;5.43;;
51495;SDS011;37572;52.094;4.870;2023-03-20T00:51:50;11.38;;;5.75;;
51495;SDS011;37572;52.094;4.870;2023-03-20T00:54:15;11.70;;;5.80;;
51495;SDS011;37572;52.094;4.870;2023-03-20T00:56:45;15.10;;;6.28;;
51495;SDS011;37572;52.094;4.870;2023-03-20T00:59:16;13.13;;;5.30;;
51495;SDS011;37572;52.094;4.870;2023-03-20T01:01:42;12.05;;;5.43;;
51495;SDS011;37572;52.094;4.870;2023-03-20T01:04:11;12.17;;;6.27;;
51495;SDS011;37572;52.094;4.870;2023-03-20T01:06:36;13.27;;;6.07;;
51495;SDS011;37572;52.094;4.870;2023-03-20T01:09:02;14.00;;;5.77;;
51495;SDS011;37572;52.094;4.870;2023-03-20T01:11:27;14.80;;;6.97;;
51495;SDS011;37572;52.094;4.870;2023-03-20T01:13:53;14.23;;;6.78;;
51495;SDS011;37572;52.094;4.870;2023-03-20T01:16:19;14.30;;;7.03;;
51495;SDS011;37572;52.094;4.870;2023-03-20T01:18:45;16.98;;;7.10;;
51495;SDS011;37572;52.094;4.870;2023-03-20T01:21:10;17.47;;;7.13;;
51495;SDS011;37572;52.094;4.870;2023-03-20T01:23:36;15.73;;;6.60;;
51495;SDS011;37572;52.094;4.870;2023-03-20T01:26:01;19.50;;;7.73;;
51495;SDS011;37572;52.094;4.870;2023-03-20T01:28:26;20.40;;;7.73;;
51495;SDS011;37572;52.094;4.870;2023-03-20T01:30:53;16.35;;;6.95;;
51495;SDS011;37572;52.094;4.870;2023-03-20T01:33:19;19.53;;;8.03;;
51495;SDS011;37572;52.094;4.870;2023-03-20T01:35:44;18.15;;;8.20;;
51495;SDS011;37572;52.094;4.870;2023-03-20T01:38:20;17.27;;;7.22;;
51495;SDS011;37572;52.094;4.870;2023-03-20T01:40:49;17.25;;;6.95;;
51495;SDS011;37572;52.094;4.870;2023-03-20T01:43:16;14.73;;;7.18;;
51495;SDS011;37572;52.094;4.870;2023-03-20T01:45:46;21.80;;;7.70;;
51495;SDS011;37572;52.094;4.870;2023-03-20T01:48:14;16.23;;;6.55;;
51495;SDS011;37572;52.094;4.870;2023-03-20T01:50:40;15.55;;;6.80;;
51495;SDS011;37572;52.094;4.870;2023-03-20T01:53:07;14.73;;;6.77;;
51495;SDS011;37572;52.094;4.870;2023-03-20T01:55:33;16.10;;;6.40;;
51495;SDS011;37572;52.094;4.870;2023-03-20T01:58:00;17.35;;;7.50;;
51495;SDS011;37572;52.094;4.870;2023-03-20T02:00:27;19.33;;;7.70;;
51495;SDS011;37572;52.094;4.870;2023-03-20T02:02:52;19.20;;;7.37;;
51495;SDS011;37572;52.094;4.870;2023-03-20T02:05:19;20.52;;;7.70;;
51495;SDS011;37572;52.094;4.870;2023-03-20T02:07:48;15.45;;;7.00;;
51495;SDS011;37572;52.094;4.870;2023-03-20T02:10:15;24.08;;;9.75;;
51495;SDS011;37572;52.094;4.870;2023-03-20T02:12:40;21.50;;;8.80;;
51495;SDS011;37572;52.094;4.870;2023-03-20T02:15:06;21.33;;;11.52;;
51495;SDS011;37572;52.094;4.870;2023-03-20T02:17:32;23.15;;;10.07;;
51495;SDS011;37572;52.094;4.870;2023-03-20T02:20:11;25.80;;;11.13;;
51495;SDS011;37572;52.094;4.870;2023-03-20T02:30:22;27.43;;;11.73;;
51495;SDS011;37572;52.094;4.870;2023-03-20T02:38:08;25.55;;;12.48;;
51495;SDS011;37572;52.094;4.870;2023-03-20T02:43:09;29.50;;;12.17;;
51495;SDS011;37572;52.094;4.870;2023-03-20T02:50:47;23.48;;;10.40;;
51495;SDS011;37572;52.094;4.870;2023-03-20T02:53:19;32.13;;;12.05;;
51495;SDS011;37572;52.094;4.870;2023-03-20T02:55:52;28.33;;;12.40;;
51495;SDS011;37572;52.094;4.870;2023-03-20T02:58:27;26.45;;;11.95;;
51495;SDS011;37572;52.094;4.870;2023-03-20T03:00:59;26.38;;;11.93;;
51495;SDS011;37572;52.094;4.870;2023-03-20T03:03:34;26.48;;;11.45;;
51495;SDS011;37572;52.094;4.870;2023-03-20T03:08:39;38.67;;;13.88;;
51495;SDS011;37572;52.094;4.870;2023-03-20T03:11:06;30.38;;;12.80;;
51495;SDS011;37572;52.094;4.870;2023-03-20T03:13:34;26.40;;;11.40;;
51495;SDS011;37572;52.094;4.870;2023-03-20T03:16:01;26.02;;;11.13;;
51495;SDS011;37572;52.094;4.870;2023-03-20T03:18:29;29.90;;;13.13;;
51495;SDS011;37572;52.094;4.870;2023-03-20T03:20:55;27.20;;;11.02;;
51495;SDS011;37572;52.094;4.870;2023-03-20T03:23:24;28.45;;;12.30;;
51495;SDS011;37572;52.094;4.870;2023-03-20T03:25:50;26.88;;;12.55;;
51495;SDS011;37572;52.094;4.870;2023-03-20T03:30:42;26.88;;;11.77;;
51495;SDS011;37572;52.094;4.870;2023-03-20T03:33:22;23.25;;;11.98;;
51495;SDS011;37572;52.094;4.870;2023-03-20T03:35:48;28.48;;;11.13;;
51495;SDS011;37572;52.094;4.870;2023-03-20T03:40:59;28.13;;;12.15;;
51495;SDS011;37572;52.094;4.870;2023-03-20T03:43:29;23.10;;;11.85;;
51495;SDS011;37572;52.094;4.870;2023-03-20T03:46:09;23.95;;;10.93;;
51495;SDS011;37572;52.094;4.870;2023-03-20T03:48:41;24.70;;;10.40;;
51495;SDS011;37572;52.094;4.870;2023-03-20T03:51:09;19.15;;;10.77;;
51495;SDS011;37572;52.094;4.870;2023-03-20T03:53:40;27.30;;;11.40;;
51495;SDS011;37572;52.094;4.870;2023-03-20T03:56:08;24.63;;;10.88;;
51495;SDS011;37572;52.094;4.870;2023-03-20T03:58:35;20.17;;;10.55;;
51495;SDS011;37572;52.094;4.870;2023-03-20T04:01:01;26.65;;;11.68;;
51495;SDS011;37572;52.094;4.870;2023-03-20T04:03:29;19.60;;;10.52;;
51495;SDS011;37572;52.094;4.870;2023-03-20T04:05:54;22.40;;;10.85;;
51495;SDS011;37572;52.094;4.870;2023-03-20T04:08:21;20.25;;;10.20;;
51495;SDS011;37572;52.094;4.870;2023-03-20T04:10:46;19.47;;;9.33;;
51495;SDS011;37572;52.094;4.870;2023-03-20T04:13:11;21.37;;;9.93;;
51495;SDS011;37572;52.094;4.870;2023-03-20T04:15:37;24.07;;;11.07;;
51495;SDS011;37572;52.094;4.870;2023-03-20T04:18:02;28.03;;;12.43;;
51495;SDS011;37572;52.094;4.870;2023-03-20T04:20:27;20.58;;;11.07;;
51495;SDS011;37572;52.094;4.870;2023-03-20T04:22:53;20.40;;;10.60;;
51495;SDS011;37572;52.094;4.870;2023-03-20T04:25:19;24.03;;;11.40;;
51495;SDS011;37572;52.094;4.870;2023-03-20T04:27:45;22.17;;;11.43;;
51495;SDS011;37572;52.094;4.870;2023-03-20T04:30:10;21.87;;;10.87;;
51495;SDS011;37572;52.094;4.870;2023-03-20T04:32:36;25.02;;;12.13;;
51495;SDS011;37572;52.094;4.870;2023-03-20T04:35:01;25.40;;;12.77;;
51495;SDS011;37572;52.094;4.870;2023-03-20T04:37:26;21.97;;;11.20;;
51495;SDS011;37572;52.094;4.870;2023-03-20T04:39:52;21.85;;;11.10;;
51495;SDS011;37572;52.094;4.870;2023-03-20T04:42:17;22.57;;;12.77;;
51495;SDS011;37572;52.094;4.870;2023-03-20T04:44:42;22.10;;;12.23;;
51495;SDS011;37572;52.094;4.870;2023-03-20T04:47:07;22.20;;;12.20;;
51495;SDS011;37572;52.094;4.870;2023-03-20T04:49:32;20.33;;;12.23;;
51495;SDS011;37572;52.094;4.870;2023-03-20T04:51:58;23.17;;;12.77;;
51495;SDS011;37572;52.094;4.870;2023-03-20T04:54:23;22.10;;;13.77;;
51495;SDS011;37572;52.094;4.870;2023-03-20T04:56:48;21.87;;;12.73;;
51495;SDS011;37572;52.094;4.870;2023-03-20T04:59:13;23.80;;;13.43;;
51495;SDS011;37572;52.094;4.870;2023-03-20T05:01:38;24.50;;;12.80;;
51495;SDS011;37572;52.094;4.870;2023-03-20T05:04:04;25.50;;;13.70;;
51495;SDS011;37572;52.094;4.870;2023-03-20T05:06:29;24.42;;;13.80;;
51495;SDS011;37572;52.094;4.870;2023-03-20T05:08:58;24.33;;;13.15;;
51495;SDS011;37572;52.094;4.870;2023-03-20T05:11:24;27.23;;;14.23;;
51495;SDS011;37572;52.094;4.870;2023-03-20T05:13:50;23.30;;;14.30;;
51495;SDS011;37572;52.094;4.870;2023-03-20T05:16:15;24.27;;;12.75;;
51495;SDS011;37572;52.094;4.870;2023-03-20T05:18:40;26.70;;;13.70;;
51495;SDS011;37572;52.094;4.870;2023-03-20T05:21:06;23.40;;;14.00;;
51495;SDS011;37572;52.094;4.870;2023-03-20T05:23:31;24.67;;;14.43;;
51495;SDS011;37572;52.094;4.870;2023-03-20T05:25:57;23.10;;;14.07;;
51495;SDS011;37572;52.094;4.870;2023-03-20T05:28:22;22.10;;;13.57;;
51495;SDS011;37572;52.094;4.870;2023-03-20T05:30:48;25.87;;;15.33;;
51495;SDS011;37572;52.094;4.870;2023-03-20T05:33:13;26.25;;;14.23;;
51495;SDS011;37572;52.094;4.870;2023-03-20T05:35:38;25.03;;;14.23;;
51495;SDS011;37572;52.094;4.870;2023-03-20T05:38:04;23.80;;;14.35;;
51495;SDS011;37572;52.094;4.870;2023-03-20T05:40:30;26.10;;;14.45;;
51495;SDS011;37572;52.094;4.870;2023-03-20T05:42:55;22.67;;;14.07;;
51495;SDS011;37572;52.094;4.870;2023-03-20T05:45:20;23.20;;;13.90;;
51495;SDS011;37572;52.094;4.870;2023-03-20T05:47:45;25.40;;;15.20;;
51495;SDS011;37572;52.094;4.870;2023-03-20T05:50:11;27.90;;;15.17;;
51495;SDS011;37572;52.094;4.870;2023-03-20T05:52:36;23.90;;;15.10;;
51495;SDS011;37572;52.094;4.870;2023-03-20T05:55:01;26.87;;;16.13;;
51495;SDS011;37572;52.094;4.870;2023-03-20T05:57:27;27.55;;;15.60;;
51495;SDS011;37572;52.094;4.870;2023-03-20T05:59:52;25.47;;;16.27;;
51495;SDS011;37572;52.094;4.870;2023-03-20T06:02:17;25.87;;;16.00;;
51495;SDS011;37572;52.094;4.870;2023-03-20T06:04:42;22.13;;;15.43;;
51495;SDS011;37572;52.094;4.870;2023-03-20T06:07:08;29.10;;;15.33;;
51495;SDS011;37572;52.094;4.870;2023-03-20T06:09:33;26.17;;;16.23;;
51495;SDS011;37572;52.094;4.870;2023-03-20T06:11:58;28.63;;;15.43;;
51495;SDS011;37572;52.094;4.870;2023-03-20T06:14:23;27.67;;;17.20;;
51495;SDS011;37572;52.094;4.870;2023-03-20T06:16:48;29.97;;;16.17;;
51495;SDS011;37572;52.094;4.870;2023-03-20T06:19:14;26.83;;;16.07;;
51495;SDS011;37572;52.094;4.870;2023-03-20T06:21:39;27.10;;;15.38;;
51495;SDS011;37572;52.094;4.870;2023-03-20T06:24:04;33.57;;;16.87;;
51495;SDS011;37572;52.094;4.870;2023-03-20T06:26:29;24.80;;;15.77;;
51495;SDS011;37572;52.094;4.870;2023-03-20T06:28:55;27.97;;;17.07;;
51495;SDS011;37572;52.094;4.870;2023-03-20T06:31:20;30.02;;;17.83;;
51495;SDS011;37572;52.094;4.870;2023-03-20T06:33:45;26.23;;;16.20;;
51495;SDS011;37572;52.094;4.870;2023-03-20T06:36:11;28.38;;;15.90;;
51495;SDS011;37572;52.094;4.870;2023-03-20T06:38:36;28.10;;;15.52;;
51495;SDS011;37572;52.094;4.870;2023-03-20T06:41:02;24.37;;;14.97;;
51495;SDS011;37572;52.094;4.870;2023-03-20T06:43:27;24.63;;;15.27;;
51495;SDS011;37572;52.094;4.870;2023-03-20T06:45:52;25.50;;;14.27;;
51495;SDS011;37572;52.094;4.870;2023-03-20T06:48:17;23.03;;;15.00;;
51495;SDS011;37572;52.094;4.870;2023-03-20T06:50:46;26.30;;;14.10;;
51495;SDS011;37572;52.094;4.870;2023-03-20T06:53:11;23.17;;;14.68;;
51495;SDS011;37572;52.094;4.870;2023-03-20T06:55:37;23.30;;;14.00;;
51495;SDS011;37572;52.094;4.870;2023-03-20T06:58:02;25.03;;;13.87;;
51495;SDS011;37572;52.094;4.870;2023-03-20T07:00:27;28.90;;;14.70;;
51495;SDS011;37572;52.094;4.870;2023-03-20T07:02:52;23.55;;;12.98;;
51495;SDS011;37572;52.094;4.870;2023-03-20T07:05:18;26.85;;;13.20;;
51495;SDS011;37572;52.094;4.870;2023-03-20T07:07:43;25.03;;;14.43;;
51495;SDS011;37572;52.094;4.870;2023-03-20T07:10:08;28.60;;;16.07;;
51495;SDS011;37572;52.094;4.870;2023-03-20T07:12:34;18.98;;;10.77;;
51495;SDS011;37572;52.094;4.870;2023-03-20T07:14:59;20.57;;;11.83;;
51495;SDS011;37572;52.094;4.870;2023-03-20T07:17:24;18.98;;;11.13;;
51495;SDS011;37572;52.094;4.870;2023-03-20T07:19:49;22.17;;;10.80;;
51495;SDS011;37572;52.094;4.870;2023-03-20T07:22:25;22.33;;;12.30;;
51495;SDS011;37572;52.094;4.870;2023-03-20T07:24:51;19.85;;;11.65;;
51495;SDS011;37572;52.094;4.870;2023-03-20T07:27:16;18.23;;;10.27;;
51495;SDS011;37572;52.094;4.870;2023-03-20T07:29:42;20.67;;;11.77;;
51495;SDS011;37572;52.094;4.870;2023-03-20T07:32:07;19.38;;;11.75;;
51495;SDS011;37572;52.094;4.870;2023-03-20T07:34:32;19.33;;;10.47;;
51495;SDS011;37572;52.094;4.870;2023-03-20T07:36:58;22.40;;;11.07;;
51495;SDS011;37572;52.094;4.870;2023-03-20T07:39:23;17.67;;;9.37;;
51495;SDS011;37572;52.094;4.870;2023-03-20T07:41:48;19.53;;;9.83;;
51495;SDS011;37572;52.094;4.870;2023-03-20T07:44:13;16.50;;;8.80;;
51495;SDS011;37572;52.094;4.870;2023-03-20T07:46:39;20.73;;;9.95;;
51495;SDS011;37572;52.094;4.870;2023-03-20T07:49:05;14.82;;;8.93;;
51495;SDS011;37572;52.094;4.870;2023-03-20T07:51:30;21.58;;;10.00;;
51495;SDS011;37572;52.094;4.870;2023-03-20T07:53:55;17.70;;;9.20;;
51495;SDS011;37572;52.094;4.870;2023-03-20T07:56:20;17.13;;;8.20;;
51495;SDS011;37572;52.094;4.870;2023-03-20T07:58:46;15.93;;;8.75;;
51495;SDS011;37572;52.094;4.870;2023-03-20T08:01:11;17.57;;;9.10;;
51495;SDS011;37572;52.094;4.870;2023-03-20T08:03:36;17.67;;;7.93;;
51495;SDS011;37572;52.094;4.870;2023-03-20T08:06:02;15.05;;;8.35;;
51495;SDS011;37572;52.094;4.870;2023-03-20T08:08:30;13.50;;;7.95;;
51495;SDS011;37572;52.094;4.870;2023-03-20T08:10:55;15.70;;;7.47;;
51495;SDS011;37572;52.094;4.870;2023-03-20T08:13:21;15.88;;;8.18;;
51495;SDS011;37572;52.094;4.870;2023-03-20T08:15:46;13.27;;;7.83;;
51495;SDS011;37572;52.094;4.870;2023-03-20T08:18:11;15.02;;;8.43;;
51495;SDS011;37572;52.094;4.870;2023-03-20T08:20:36;15.63;;;7.90;;
51495;SDS011;37572;52.094;4.870;2023-03-20T08:23:02;19.60;;;8.00;;
51495;SDS011;37572;52.094;4.870;2023-03-20T08:25:27;16.50;;;8.30;;
51495;SDS011;37572;52.094;4.870;2023-03-20T08:27:56;17.33;;;9.20;;
51495;SDS011;37572;52.094;4.870;2023-03-20T08:30:21;15.27;;;7.67;;
51495;SDS011;37572;52.094;4.870;2023-03-20T08:32:46;13.90;;;7.60;;
51495;SDS011;37572;52.094;4.870;2023-03-20T08:35:12;17.97;;;8.53;;
51495;SDS011;37572;52.094;4.870;2023-03-20T08:37:37;16.60;;;7.80;;
51495;SDS011;37572;52.094;4.870;2023-03-20T08:40:02;16.77;;;7.67;;
51495;SDS011;37572;52.094;4.870;2023-03-20T08:42:28;18.00;;;7.25;;
51495;SDS011;37572;52.094;4.870;2023-03-20T08:44:53;16.10;;;7.43;;
51495;SDS011;37572;52.094;4.870;2023-03-20T08:47:18;14.80;;;6.90;;
51495;SDS011;37572;52.094;4.870;2023-03-20T08:49:43;13.97;;;6.70;;
51495;SDS011;37572;52.094;4.870;2023-03-20T08:52:09;15.53;;;6.97;;
51495;SDS011;37572;52.094;4.870;2023-03-20T08:54:34;9.87;;;6.07;;
51495;SDS011;37572;52.094;4.870;2023-03-20T08:56:59;14.03;;;6.77;;
51495;SDS011;37572;52.094;4.870;2023-03-20T08:59:24;15.50;;;5.97;;
51495;SDS011;37572;52.094;4.870;2023-03-20T09:01:50;12.63;;;6.20;;
51495;SDS011;37572;52.094;4.870;2023-03-20T09:04:15;12.10;;;6.23;;
51495;SDS011;37572;52.094;4.870;2023-03-20T09:06:40;14.70;;;5.90;;
51495;SDS011;37572;52.094;4.870;2023-03-20T09:09:06;13.25;;;6.65;;
51495;SDS011;37572;52.094;4.870;2023-03-20T09:11:32;15.30;;;6.63;;
51495;SDS011;37572;52.094;4.870;2023-03-20T09:13:57;14.00;;;6.88;;
51495;SDS011;37572;52.094;4.870;2023-03-20T09:16:23;15.48;;;7.10;;
51495;SDS011;37572;52.094;4.870;2023-03-20T09:18:48;12.47;;;6.27;;
51495;SDS011;37572;52.094;4.870;2023-03-20T09:21:13;17.80;;;6.33;;
51495;SDS011;37572;52.094;4.870;2023-03-20T09:23:39;12.07;;;6.67;;
51495;SDS011;37572;52.094;4.870;2023-03-20T09:26:04;15.70;;;6.83;;
51495;SDS011;37572;52.094;4.870;2023-03-20T09:28:29;15.55;;;6.82;;
51495;SDS011;37572;52.094;4.870;2023-03-20T09:30:58;13.63;;;6.10;;
51495;SDS011;37572;52.094;4.870;2023-03-20T09:33:23;16.92;;;6.75;;
51495;SDS011;37572;52.094;4.870;2023-03-20T09:35:49;17.50;;;7.03;;
51495;SDS011;37572;52.094;4.870;2023-03-20T09:38:14;14.95;;;6.38;;
51495;SDS011;37572;52.094;4.870;2023-03-20T09:40:48;12.07;;;5.93;;
51495;SDS011;37572;52.094;4.870;2023-03-20T09:50:33;16.40;;;7.07;;
51495;SDS011;37572;52.094;4.870;2023-03-20T09:53:21;13.32;;;6.30;;
51495;SDS011;37572;52.094;4.870;2023-03-20T09:55:49;16.67;;;6.70;;
51495;SDS011;37572;52.094;4.870;2023-03-20T09:58:25;17.25;;;7.68;;
51495;SDS011;37572;52.094;4.870;2023-03-20T10:00:51;17.25;;;7.20;;
51495;SDS011;37572;52.094;4.870;2023-03-20T10:05:55;18.30;;;8.13;;
51495;SDS011;37572;52.094;4.870;2023-03-20T10:08:23;16.45;;;6.47;;
51495;SDS011;37572;52.094;4.870;2023-03-20T10:18:43;18.92;;;7.82;;
51495;SDS011;37572;52.094;4.870;2023-03-20T10:21:18;18.40;;;10.00;;
51495;SDS011;37572;52.094;4.870;2023-03-20T10:26:17;19.13;;;9.38;;
51495;SDS011;37572;52.094;4.870;2023-03-20T10:36:27;19.27;;;9.20;;
51495;SDS011;37572;52.094;4.870;2023-03-20T10:41:28;20.75;;;9.48;;
51495;SDS011;37572;52.094;4.870;2023-03-20T10:43:53;19.25;;;11.27;;
51495;SDS011;37572;52.094;4.870;2023-03-20T10:46:24;22.52;;;10.48;;
51495;SDS011;37572;52.094;4.870;2023-03-20T10:51:17;22.87;;;10.87;;
51495;SDS011;37572;52.094;4.870;2023-03-20T10:53:46;17.45;;;10.70;;
51495;SDS011;37572;52.094;4.870;2023-03-20T10:56:14;21.25;;;11.50;;
51495;SDS011;37572;52.094;4.870;2023-03-20T10:58:41;18.77;;;10.75;;
51495;SDS011;37572;52.094;4.870;2023-03-20T11:01:07;18.38;;;11.45;;
51495;SDS011;37572;52.094;4.870;2023-03-20T11:03:32;25.70;;;13.65;;
51495;SDS011;37572;52.094;4.870;2023-03-20T11:06:00;24.02;;;12.40;;
51495;SDS011;37572;52.094;4.870;2023-03-20T11:08:30;22.10;;;11.50;;
51495;SDS011;37572;52.094;4.870;2023-03-20T11:10:59;21.90;;;10.80;;
51495;SDS011;37572;52.094;4.870;2023-03-20T11:13:26;18.77;;;11.45;;
51495;SDS011;37572;52.094;4.870;2023-03-20T11:15:54;19.38;;;11.50;;
51495;SDS011;37572;52.094;4.870;2023-03-20T11:18:19;21.38;;;11.85;;
51495;SDS011;37572;52.094;4.870;2023-03-20T11:20:50;20.85;;;10.88;;
51495;SDS011;37572;52.094;4.870;2023-03-20T11:23:16;25.92;;;11.70;;
51495;SDS011;37572;52.094;4.870;2023-03-20T11:28:20;19.75;;;10.38;;
51495;SDS011;37572;52.094;4.870;2023-03-20T11:30:46;17.92;;;10.43;;
51495;SDS011;37572;52.094;4.870;2023-03-20T11:33:11;20.00;;;11.90;;
51495;SDS011;37572;52.094;4.870;2023-03-20T11:35:37;21.58;;;12.98;;
51495;SDS011;37572;52.094;4.870;2023-03-20T11:38:07;25.27;;;11.90;;
51495;SDS011;37572;52.094;4.870;2023-03-20T11:40:33;23.67;;;11.88;;
51495;SDS011;37572;52.094;4.870;2023-03-20T11:45:23;21.37;;;11.57;;
51495;SDS011;37572;52.094;4.870;2023-03-20T11:47:50;24.40;;;11.88;;
51495;SDS011;37572;52.094;4.870;2023-03-20T11:50:24;18.70;;;11.38;;
51495;SDS011;37572;52.094;4.870;2023-03-20T11:52:50;24.73;;;11.88;;
51495;SDS011;37572;52.094;4.870;2023-03-20T11:55:23;19.83;;;10.77;;
51495;SDS011;37572;52.094;4.870;2023-03-20T11:57:49;19.67;;;11.18;;
51495;SDS011;37572;52.094;4.870;2023-03-20T12:00:20;20.37;;;11.57;;
51495;SDS011;37572;52.094;4.870;2023-03-20T12:02:47;18.15;;;10.85;;
51495;SDS011;37572;52.094;4.870;2023-03-20T12:05:28;25.70;;;13.97;;
51495;SDS011;37572;52.094;4.870;2023-03-20T12:07:55;21.70;;;10.80;;
51495;SDS011;37572;52.094;4.870;2023-03-20T12:10:22;19.65;;;12.70;;
51495;SDS011;37572;52.094;4.870;2023-03-20T12:13:23;22.23;;;11.40;;
51495;SDS011;37572;52.094;4.870;2023-03-20T12:15:41;21.73;;;12.05;;
51495;SDS011;37572;52.094;4.870;2023-03-20T12:20:35;21.88;;;12.15;;
51495;SDS011;37572;52.094;4.870;2023-03-20T12:23:13;21.60;;;12.07;;
51495;SDS011;37572;52.094;4.870;2023-03-20T12:28:11;26.67;;;13.05;;
51495;SDS011;37572;52.094;4.870;2023-03-20T12:30:53;23.38;;;12.77;;
51495;SDS011;37572;52.094;4.870;2023-03-20T12:35:47;23.73;;;12.70;;
51495;SDS011;37572;52.094;4.870;2023-03-20T12:38:17;24.75;;;12.55;;
51495;SDS011;37572;52.094;4.870;2023-03-20T12:40:45;22.90;;;12.57;;
51495;SDS011;37572;52.094;4.870;2023-03-20T12:43:14;23.52;;;13.20;;
51495;SDS011;37572;52.094;4.870;2023-03-20T12:45:40;27.25;;;14.20;;
51495;SDS011;37572;52.094;4.870;2023-03-20T12:50:54;23.80;;;12.98;;
51495;SDS011;37572;52.094;4.870;2023-03-20T13:01:45;26.67;;;12.70;;
51495;SDS011;37572;52.094;4.870;2023-03-20T13:07:00;24.30;;;13.40;;
51495;SDS011;37572;52.094;4.870;2023-03-20T13:11:57;26.85;;;11.90;;
51495;SDS011;37572;52.094;4.870;2023-03-20T13:14:38;27.25;;;12.23;;
51495;SDS011;37572;52.094;4.870;2023-03-20T13:22:22;25.23;;;12.82;;
51495;SDS011;37572;52.094;4.870;2023-03-20T13:24:52;26.00;;;13.57;;
51495;SDS011;37572;52.094;4.870;2023-03-20T13:30:04;24.27;;;13.55;;
51495;SDS011;37572;52.094;4.870;2023-03-20T13:37:29;26.20;;;14.70;;
51495;SDS011;37572;52.094;4.870;2023-03-20T13:42:27;24.45;;;14.40;;
51495;SDS011;37572;52.094;4.870;2023-03-20T13:45:00;29.70;;;15.90;;
51495;SDS011;37572;52.094;4.870;2023-03-20T13:47:29;26.63;;;14.38;;
51495;SDS011;37572;52.094;4.870;2023-03-20T13:50:03;31.20;;;15.75;;
51495;SDS011;37572;52.094;4.870;2023-03-20T13:52:35;24.52;;;14.57;;
51495;SDS011;37572;52.094;4.870;2023-03-20T14:00:17;29.60;;;15.00;;
51495;SDS011;37572;52.094;4.870;2023-03-20T14:05:34;28.05;;;15.13;;
51495;SDS011;37572;52.094;4.870;2023-03-20T14:08:00;26.60;;;13.63;;
51495;SDS011;37572;52.094;4.870;2023-03-20T14:10:44;28.70;;;14.25;;
51495;SDS011;37572;52.094;4.870;2023-03-20T14:13:11;23.97;;;15.13;;
51495;SDS011;37572;52.094;4.870;2023-03-20T14:15:37;23.33;;;14.35;;
51495;SDS011;37572;52.094;4.870;2023-03-20T14:18:04;25.77;;;14.57;;
51495;SDS011;37572;52.094;4.870;2023-03-20T14:20:31;29.40;;;15.07;;
51495;SDS011;37572;52.094;4.870;2023-03-20T14:22:57;28.50;;;17.58;;
51495;SDS011;37572;52.094;4.870;2023-03-20T14:25:23;25.80;;;14.93;;
51495;SDS011;37572;52.094;4.870;2023-03-20T14:27:57;24.50;;;14.80;;
51495;SDS011;37572;52.094;4.870;2023-03-20T14:33:04;28.55;;;14.95;;
51495;SDS011;37572;52.094;4.870;2023-03-20T14:35:29;26.17;;;14.15;;
51495;SDS011;37572;52.094;4.870;2023-03-20T14:40:27;23.47;;;14.53;;
51495;SDS011;37572;52.094;4.870;2023-03-20T14:45:40;29.00;;;15.85;;
51495;SDS011;37572;52.094;4.870;2023-03-20T14:50:38;24.77;;;14.85;;
51495;SDS011;37572;52.094;4.870;2023-03-20T14:53:38;23.08;;;14.50;;
51495;SDS011;37572;52.094;4.870;2023-03-20T14:56:05;26.90;;;15.48;;
51495;SDS011;37572;52.094;4.870;2023-03-20T15:01:03;25.60;;;15.30;;
51495;SDS011;37572;52.094;4.870;2023-03-20T15:03:29;25.75;;;14.90;;
51495;SDS011;37572;52.094;4.870;2023-03-20T15:05:58;26.02;;;15.00;;
51495;SDS011;37572;52.094;4.870;2023-03-20T15:08:24;31.77;;;16.08;;
51495;SDS011;37572;52.094;4.870;2023-03-20T15:10:54;28.20;;;15.45;;
51495;SDS011;37572;52.094;4.870;2023-03-20T15:13:20;32.13;;;15.60;;
51495;SDS011;37572;52.094;4.870;2023-03-20T15:15:58;29.80;;;16.13;;
51495;SDS011;37572;52.094;4.870;2023-03-20T15:18:25;29.95;;;15.65;;
51495;SDS011;37572;52.094;4.870;2023-03-20T15:20:51;31.85;;;15.73;;
51495;SDS011;37572;52.094;4.870;2023-03-20T15:23:16;28.50;;;15.75;;
51495;SDS011;37572;52.094;4.870;2023-03-20T15:25:45;28.53;;;16.77;;
51495;SDS011;37572;52.094;4.870;2023-03-20T15:30:38;29.95;;;16.20;;
51495;SDS011;37572;52.094;4.870;2023-03-20T15:33:04;28.60;;;15.05;;
51495;SDS011;37572;52.094;4.870;2023-03-20T15:35:30;33.08;;;16.13;;
51495;SDS011;37572;52.094;4.870;2023-03-20T15:37:55;33.08;;;17.83;;
51495;SDS011;37572;52.094;4.870;2023-03-20T15:40:25;35.25;;;16.77;;
51495;SDS011;37572;52.094;4.870;2023-03-20T15:42:52;34.13;;;17.17;;
51495;SDS011;37572;52.094;4.870;2023-03-20T15:45:24;33.38;;;15.93;;
51495;SDS011;37572;52.094;4.870;2023-03-20T15:47:50;35.67;;;17.67;;
51495;SDS011;37572;52.094;4.870;2023-03-20T15:50:15;36.47;;;18.93;;
51495;SDS011;37572;52.094;4.870;2023-03-20T15:52:44;34.78;;;17.65;;
51495;SDS011;37572;52.094;4.870;2023-03-20T15:55:17;35.35;;;18.73;;
51495;SDS011;37572;52.094;4.870;2023-03-20T15:57:43;32.30;;;17.05;;
51495;SDS011;37572;52.094;4.870;2023-03-20T16:00:13;37.95;;;18.48;;
51495;SDS011;37572;52.094;4.870;2023-03-20T16:02:39;33.47;;;17.20;;
51495;SDS011;37572;52.094;4.870;2023-03-20T16:05:08;34.85;;;17.33;;
51495;SDS011;37572;52.094;4.870;2023-03-20T16:07:34;32.33;;;17.25;;
51495;SDS011;37572;52.094;4.870;2023-03-20T16:10:00;40.65;;;18.75;;
51495;SDS011;37572;52.094;4.870;2023-03-20T16:12:26;33.60;;;19.77;;
51495;SDS011;37572;52.094;4.870;2023-03-20T16:14:53;35.25;;;17.65;;
51495;SDS011;37572;52.094;4.870;2023-03-20T16:17:19;37.85;;;17.88;;
51495;SDS011;37572;52.094;4.870;2023-03-20T16:19:45;32.90;;;17.88;;
51495;SDS011;37572;52.094;4.870;2023-03-20T16:25:05;37.55;;;17.95;;
51495;SDS011;37572;52.094;4.870;2023-03-20T16:27:33;31.15;;;16.42;;
51495;SDS011;37572;52.094;4.870;2023-03-20T16:30:04;33.92;;;18.88;;
51495;SDS011;37572;52.094;4.870;2023-03-20T16:34:58;32.00;;;16.73;;
51495;SDS011;37572;52.094;4.870;2023-03-20T16:42:34;30.45;;;15.77;;
51495;SDS011;37572;52.094;4.870;2023-03-20T16:45:03;28.13;;;14.52;;